createdAt,value
2017-10-19T00:01:29.735Z,11.78
2017-10-19T00:02:29.646Z,11.78
2017-10-19T00:04:22.568Z,11.78
2017-10-19T00:05:22.443Z,11.70
2017-10-19T00:07:15.427Z,11.75
2017-10-19T00:08:15.118Z,11.72
2017-10-19T00:10:07.890Z,11.75
2017-10-19T00:11:07.767Z,11.72
2017-10-19T00:13:00.556Z,11.65
2017-10-19T00:14:00.474Z,11.59
2017-10-19T00:15:53.257Z,11.63
2017-10-19T00:16:53.120Z,11.50
2017-10-19T00:18:45.892Z,11.41
2017-10-19T00:19:45.836Z,11.43
2017-10-19T00:21:38.553Z,11.47
2017-10-19T00:22:38.469Z,11.51
2017-10-19T00:24:31.176Z,11.54
2017-10-19T00:25:31.092Z,11.57
2017-10-19T00:27:23.872Z,11.62
2017-10-19T00:28:23.743Z,11.59
2017-10-19T00:30:16.609Z,11.60
2017-10-19T00:31:16.500Z,11.63
2017-10-19T00:33:09.647Z,11.62
2017-10-19T00:34:09.152Z,11.54
2017-10-19T00:36:01.946Z,11.54
2017-10-19T00:37:01.822Z,11.57
2017-10-19T00:38:54.560Z,11.50
2017-10-19T00:39:54.478Z,11.52
2017-10-19T00:41:47.304Z,11.59
2017-10-19T00:42:47.140Z,11.54
2017-10-19T00:44:39.925Z,11.60
2017-10-19T00:45:39.828Z,11.63
2017-10-19T00:47:32.604Z,11.66
2017-10-19T00:48:32.476Z,11.60
2017-10-19T00:50:25.296Z,11.65
2017-10-19T00:51:25.214Z,11.62
2017-10-19T00:53:18.180Z,11.59
2017-10-19T00:54:17.873Z,11.63
2017-10-19T00:56:11.178Z,11.60
2017-10-19T00:57:10.523Z,11.59
2017-10-19T00:59:03.253Z,11.69
2017-10-19T01:00:03.165Z,11.69
2017-10-19T01:01:56.056Z,11.69
2017-10-19T01:02:55.925Z,11.63
2017-10-19T01:04:48.721Z,11.70
2017-10-19T01:05:48.600Z,11.62
2017-10-19T01:07:41.376Z,11.60
2017-10-19T01:08:41.274Z,11.69
2017-10-19T01:10:34.006Z,11.63
2017-10-19T01:11:33.882Z,11.59
2017-10-19T01:13:26.737Z,11.55
2017-10-19T01:14:26.592Z,11.52
2017-10-19T01:16:19.400Z,11.52
2017-10-19T01:17:19.262Z,11.44
2017-10-19T01:19:12.062Z,11.52
2017-10-19T01:20:11.918Z,11.50
2017-10-19T01:22:04.751Z,11.45
2017-10-19T01:23:04.563Z,11.45
2017-10-19T01:24:57.303Z,11.48
2017-10-19T01:25:57.221Z,11.41
2017-10-19T01:27:50.660Z,11.41
2017-10-19T01:28:50.566Z,11.48
2017-10-19T01:30:43.558Z,11.48
2017-10-19T01:31:43.295Z,11.32
2017-10-19T01:33:35.955Z,11.41
2017-10-19T01:34:35.872Z,11.30
2017-10-19T01:36:28.554Z,11.44
2017-10-19T01:37:28.472Z,11.43
2017-10-19T01:39:21.271Z,11.44
2017-10-19T01:40:21.158Z,11.45
2017-10-19T01:42:14.031Z,11.45
2017-10-19T01:43:13.834Z,11.37
2017-10-19T01:45:06.732Z,11.41
2017-10-19T01:46:06.464Z,11.30
2017-10-19T01:47:59.277Z,11.32
2017-10-19T01:48:59.135Z,11.29
2017-10-19T01:50:51.959Z,11.26
2017-10-19T01:51:51.820Z,11.29
2017-10-19T01:53:44.694Z,11.26
2017-10-19T01:54:44.501Z,11.29
2017-10-19T01:56:37.223Z,11.22
2017-10-19T01:57:37.149Z,11.27
2017-10-19T01:59:29.908Z,11.30
2017-10-19T02:00:29.779Z,11.18
2017-10-19T02:02:22.526Z,11.19
2017-10-19T02:03:22.444Z,11.11
2017-10-19T02:05:15.410Z,11.07
2017-10-19T02:06:15.111Z,11.15
2017-10-19T02:08:07.853Z,11.23
2017-10-19T02:09:07.758Z,11.18
2017-10-19T02:11:00.549Z,11.25
2017-10-19T02:12:00.422Z,11.22
2017-10-19T02:13:53.181Z,11.22
2017-10-19T02:14:53.104Z,11.19
2017-10-19T02:16:45.941Z,11.23
2017-10-19T02:17:45.972Z,11.19
2017-10-19T02:19:38.548Z,11.14
2017-10-19T02:20:38.400Z,11.23
2017-10-19T02:22:31.142Z,11.22
2017-10-19T02:23:31.058Z,11.23
2017-10-19T02:25:24.410Z,11.22
2017-10-19T02:26:24.281Z,11.23
2017-10-19T02:28:17.069Z,11.18
2017-10-19T02:29:16.993Z,11.18
2017-10-19T02:31:09.793Z,11.17
2017-10-19T02:32:09.789Z,11.14
2017-10-19T02:34:02.342Z,11.19
2017-10-19T02:35:02.260Z,11.22
2017-10-19T02:36:55.047Z,11.17
2017-10-19T02:37:54.922Z,11.23
2017-10-19T02:39:47.671Z,11.08
2017-10-19T02:40:47.589Z,11.18
2017-10-19T02:42:40.431Z,11.14
2017-10-19T02:43:40.254Z,11.05
2017-10-19T02:45:32.981Z,11.11
2017-10-19T02:46:32.897Z,11.07
2017-10-19T02:48:25.791Z,10.97
2017-10-19T02:49:25.662Z,11.14
2017-10-19T02:51:18.468Z,10.99
2017-10-19T02:52:18.369Z,11.04
2017-10-19T02:54:11.613Z,11.00
2017-10-19T02:55:11.611Z,10.90
2017-10-19T02:57:04.272Z,10.93
2017-10-19T02:58:04.137Z,10.99
2017-10-19T02:59:56.853Z,10.89
2017-10-19T03:00:56.771Z,10.94
2017-10-19T03:02:49.568Z,11.04
2017-10-19T03:03:49.477Z,10.94
2017-10-19T03:05:42.290Z,10.89
2017-10-19T03:06:42.096Z,10.87
2017-10-19T03:08:34.898Z,10.96
2017-10-19T03:09:34.759Z,10.94
2017-10-19T03:11:27.493Z,10.87
2017-10-19T03:12:27.409Z,10.93
2017-10-19T03:14:20.749Z,10.92
2017-10-19T03:15:20.692Z,11.00
2017-10-19T03:17:13.363Z,10.87
2017-10-19T03:18:13.284Z,11.02
2017-10-19T03:20:06.029Z,10.93
2017-10-19T03:21:05.902Z,10.90
2017-10-19T03:22:58.675Z,10.94
2017-10-19T03:23:58.545Z,10.90
2017-10-19T03:25:51.540Z,10.97
2017-10-19T03:26:51.339Z,10.99
2017-10-19T03:28:44.334Z,11.04
2017-10-19T03:29:44.349Z,10.99
2017-10-19T03:31:36.766Z,10.97
2017-10-19T03:32:36.677Z,11.00
2017-10-19T03:34:29.448Z,11.04
2017-10-19T03:35:29.314Z,11.02
2017-10-19T03:37:22.055Z,11.02
2017-10-19T03:38:21.986Z,10.96
2017-10-19T03:40:15.023Z,10.94
2017-10-19T03:41:14.721Z,10.92
2017-10-19T03:43:07.415Z,10.93
2017-10-19T03:44:07.287Z,10.89
2017-10-19T03:46:00.060Z,11.00
2017-10-19T03:46:59.928Z,11.00
2017-10-19T03:48:52.836Z,10.87
2017-10-19T03:49:52.712Z,10.96
2017-10-19T03:51:45.562Z,10.90
2017-10-19T03:52:45.425Z,10.93
2017-10-19T03:54:38.621Z,11.00
2017-10-19T03:55:38.074Z,10.90
2017-10-19T03:57:30.887Z,11.00
2017-10-19T03:58:30.758Z,11.00
2017-10-19T04:00:23.581Z,11.07
2017-10-19T04:01:23.487Z,11.07
2017-10-19T04:03:16.412Z,11.11
2017-10-19T04:04:16.194Z,11.05
2017-10-19T04:06:09.020Z,11.08
2017-10-19T04:07:08.841Z,11.14
2017-10-19T04:09:01.661Z,11.11
2017-10-19T04:10:01.578Z,11.15
2017-10-19T04:11:55.459Z,11.17
2017-10-19T04:12:55.066Z,11.19
2017-10-19T04:14:47.850Z,11.19
2017-10-19T04:15:47.759Z,11.14
2017-10-19T04:17:41.107Z,11.25
2017-10-19T04:18:40.970Z,11.22
2017-10-19T04:20:33.614Z,11.15
2017-10-19T04:21:33.532Z,11.18
2017-10-19T04:23:26.414Z,11.17
2017-10-19T04:24:26.282Z,11.10
2017-10-19T04:26:19.117Z,11.10
2017-10-19T04:27:18.956Z,11.12
2017-10-19T04:29:11.749Z,11.07
2017-10-19T04:30:11.687Z,11.17
2017-10-19T04:32:04.896Z,11.17
2017-10-19T04:33:04.755Z,11.11
2017-10-19T04:34:57.491Z,11.04
2017-10-19T04:35:57.412Z,11.04
2017-10-19T04:37:50.311Z,11.00
2017-10-19T04:38:50.163Z,11.00
2017-10-19T04:40:42.958Z,10.97
2017-10-19T04:41:42.902Z,11.02
2017-10-19T04:43:35.632Z,10.99
2017-10-19T04:44:35.472Z,10.99
2017-10-19T04:46:28.269Z,11.08
2017-10-19T04:47:28.138Z,11.10
2017-10-19T04:49:21.008Z,11.12
2017-10-19T04:50:20.943Z,11.07
2017-10-19T04:52:13.763Z,11.07
2017-10-19T04:53:13.686Z,11.08
2017-10-19T04:55:06.313Z,11.07
2017-10-19T04:56:06.228Z,11.14
2017-10-19T04:57:59.022Z,11.11
2017-10-19T04:58:58.890Z,11.12
2017-10-19T05:00:51.673Z,11.10
2017-10-19T05:01:51.578Z,11.10
2017-10-19T05:03:44.462Z,11.12
2017-10-19T05:04:44.244Z,11.07
2017-10-19T05:06:37.019Z,11.08
2017-10-19T05:07:36.891Z,11.07
2017-10-19T05:09:29.637Z,11.08
2017-10-19T05:10:29.554Z,11.11
2017-10-19T05:12:22.346Z,11.10
2017-10-19T05:13:22.219Z,11.12
2017-10-19T05:15:14.987Z,11.22
2017-10-19T05:16:14.917Z,11.08
2017-10-19T05:18:07.679Z,11.15
2017-10-19T05:19:07.544Z,11.19
2017-10-19T05:21:00.293Z,11.11
2017-10-19T05:22:00.208Z,11.07
2017-10-19T05:23:53.016Z,11.07
2017-10-19T05:24:52.886Z,11.14
2017-10-19T05:26:45.928Z,11.11
2017-10-19T05:27:45.587Z,11.07
2017-10-19T05:29:38.841Z,11.04
2017-10-19T05:30:38.732Z,11.05
2017-10-19T05:32:31.995Z,11.11
2017-10-19T05:33:31.867Z,11.11
2017-10-19T05:35:24.643Z,11.11
2017-10-19T05:36:24.564Z,10.97
2017-10-19T05:38:17.512Z,11.04
2017-10-19T05:39:17.363Z,11.00
2017-10-19T05:41:10.898Z,11.04
2017-10-19T05:42:10.098Z,10.97
2017-10-19T05:44:02.812Z,10.99
2017-10-19T05:45:02.695Z,10.97
2017-10-19T05:46:55.580Z,10.94
2017-10-19T05:47:55.454Z,11.02
2017-10-19T05:49:48.211Z,10.93
2017-10-19T05:50:48.114Z,10.87
2017-10-19T05:52:40.975Z,10.94
2017-10-19T05:53:40.763Z,10.97
2017-10-19T05:55:33.512Z,10.99
2017-10-19T05:56:33.425Z,10.96
2017-10-19T05:58:26.234Z,11.00
2017-10-19T05:59:26.094Z,10.92
2017-10-19T06:01:18.904Z,10.90
2017-10-19T06:02:18.841Z,10.94
2017-10-19T06:04:11.749Z,10.89
2017-10-19T06:05:11.472Z,10.90
2017-10-19T06:07:04.241Z,11.00
2017-10-19T06:08:04.127Z,10.90
2017-10-19T06:09:57.070Z,10.87
2017-10-19T06:10:56.986Z,10.96
2017-10-19T06:12:49.870Z,10.89
2017-10-19T06:13:49.677Z,10.87
2017-10-19T06:15:42.586Z,10.92
2017-10-19T06:16:42.514Z,11.02
2017-10-19T06:18:35.153Z,10.92
2017-10-19T06:19:35.014Z,10.92
2017-10-19T06:21:27.728Z,10.99
2017-10-19T06:22:27.650Z,10.99
2017-10-19T06:24:20.441Z,11.12
2017-10-19T06:25:20.327Z,11.10
2017-10-19T06:27:13.472Z,11.04
2017-10-19T06:28:12.995Z,11.08
2017-10-19T06:30:05.713Z,11.11
2017-10-19T06:31:05.615Z,11.08
2017-10-19T06:32:58.412Z,11.11
2017-10-19T06:33:58.282Z,11.10
2017-10-19T06:35:51.066Z,11.18
2017-10-19T06:36:50.990Z,11.25
2017-10-19T06:38:43.833Z,11.17
2017-10-19T06:39:43.788Z,11.22
2017-10-19T06:41:36.374Z,11.19
2017-10-19T06:42:36.289Z,11.18
2017-10-19T06:44:29.065Z,11.22
2017-10-19T06:45:28.936Z,11.22
2017-10-19T06:47:22.485Z,11.17
2017-10-19T06:48:22.571Z,11.14
2017-10-19T06:50:15.143Z,11.18
2017-10-19T06:51:15.135Z,11.18
2017-10-19T06:53:07.918Z,11.19
2017-10-19T06:54:07.743Z,11.19
2017-10-19T06:56:00.883Z,11.19
2017-10-19T06:57:00.799Z,11.17
2017-10-19T06:58:53.596Z,11.25
2017-10-19T06:59:53.500Z,11.27
2017-10-19T07:01:46.384Z,11.22
2017-10-19T07:02:46.166Z,11.19
2017-10-19T07:04:38.950Z,11.27
2017-10-19T07:05:38.807Z,11.26
2017-10-19T07:07:31.663Z,11.25
2017-10-19T07:08:31.535Z,11.27
2017-10-19T07:10:24.285Z,11.15
2017-10-19T07:11:24.194Z,11.19
2017-10-19T07:13:17.192Z,11.22
2017-10-19T07:14:16.956Z,11.29
2017-10-19T07:16:09.707Z,11.27
2017-10-19T07:17:09.648Z,11.27
2017-10-19T07:19:02.397Z,11.17
2017-10-19T07:20:02.267Z,11.33
2017-10-19T07:21:55.270Z,11.22
2017-10-19T07:22:55.140Z,11.22
2017-10-19T07:24:47.971Z,11.25
2017-10-19T07:25:47.880Z,11.22
2017-10-19T07:27:40.944Z,11.22
2017-10-19T07:28:40.571Z,11.15
2017-10-19T07:30:33.260Z,11.23
2017-10-19T07:31:33.176Z,11.26
2017-10-19T07:33:26.008Z,11.22
2017-10-19T07:34:25.877Z,11.27
2017-10-19T07:36:18.666Z,11.26
2017-10-19T07:37:18.567Z,11.26
2017-10-19T07:39:11.436Z,11.29
2017-10-19T07:40:11.328Z,11.29
2017-10-19T07:42:04.037Z,11.32
2017-10-19T07:43:03.861Z,11.30
2017-10-19T07:44:56.621Z,11.33
2017-10-19T07:45:56.537Z,11.37
2017-10-19T07:47:49.450Z,11.40
2017-10-19T07:48:49.236Z,11.40
2017-10-19T07:50:41.950Z,11.44
2017-10-19T07:51:41.851Z,11.48
2017-10-19T07:53:34.655Z,11.45
2017-10-19T07:54:34.493Z,11.45
2017-10-19T07:56:27.263Z,11.45
2017-10-19T07:57:27.178Z,11.40
2017-10-19T07:59:19.970Z,11.33
2017-10-19T08:00:19.839Z,11.41
2017-10-19T08:02:12.746Z,11.35
2017-10-19T08:03:12.501Z,11.45
2017-10-19T08:05:05.231Z,11.36
2017-10-19T08:06:05.136Z,11.40
2017-10-19T08:07:57.920Z,11.44
2017-10-19T08:08:57.789Z,11.41
2017-10-19T08:10:50.843Z,11.44
2017-10-19T08:11:50.737Z,11.54
2017-10-19T08:13:43.589Z,11.45
2017-10-19T08:14:43.479Z,11.51
2017-10-19T08:16:36.610Z,11.44
2017-10-19T08:17:36.552Z,11.43
2017-10-19T08:19:29.313Z,11.59
2017-10-19T08:20:29.184Z,11.60
2017-10-19T08:22:22.077Z,11.60
2017-10-19T08:23:21.931Z,11.62
2017-10-19T08:25:14.698Z,11.60
2017-10-19T08:26:14.598Z,11.57
2017-10-19T08:28:07.403Z,11.62
2017-10-19T08:29:07.249Z,11.69
2017-10-19T08:30:59.995Z,11.66
2017-10-19T08:31:59.920Z,11.77
2017-10-19T08:33:52.744Z,11.80
2017-10-19T08:34:52.621Z,11.80
2017-10-19T08:36:45.458Z,11.69
2017-10-19T08:37:45.556Z,11.69
2017-10-19T08:39:38.123Z,11.75
2017-10-19T08:40:38.041Z,11.78
2017-10-19T08:42:30.782Z,11.73
2017-10-19T08:43:30.650Z,11.78
2017-10-19T08:45:23.397Z,11.63
2017-10-19T08:46:23.317Z,11.63
2017-10-19T08:48:16.287Z,11.57
2017-10-19T08:49:16.029Z,11.65
2017-10-19T08:51:10.027Z,11.62
2017-10-19T08:52:09.131Z,11.63
2017-10-19T08:54:01.922Z,11.59
2017-10-19T08:55:01.793Z,11.63
2017-10-19T08:56:54.555Z,11.60
2017-10-19T08:57:54.471Z,11.70
2017-10-19T08:59:47.315Z,11.73
2017-10-19T09:00:47.199Z,11.78
2017-10-19T09:02:40.389Z,11.78
2017-10-19T09:03:39.885Z,11.80
2017-10-19T09:05:32.635Z,11.83
2017-10-19T09:06:32.551Z,11.81
2017-10-19T09:08:25.522Z,11.81
2017-10-19T09:09:25.392Z,11.78
2017-10-19T09:11:18.243Z,11.81
2017-10-19T09:12:18.060Z,11.91
2017-10-19T09:14:10.895Z,11.83
2017-10-19T09:15:10.736Z,11.80
2017-10-19T09:17:03.943Z,11.78
2017-10-19T09:18:03.860Z,11.81
2017-10-19T09:19:56.707Z,11.88
2017-10-19T09:20:56.577Z,11.84
2017-10-19T09:22:49.545Z,11.87
2017-10-19T09:23:49.252Z,11.87
2017-10-19T09:25:42.006Z,11.90
2017-10-19T09:26:41.901Z,11.99
2017-10-19T09:28:34.698Z,12.03
2017-10-19T09:29:34.570Z,12.00
2017-10-19T09:31:27.299Z,11.99
2017-10-19T09:32:27.220Z,12.04
2017-10-19T09:34:20.177Z,12.06
2017-10-19T09:35:20.045Z,12.06
2017-10-19T09:37:13.345Z,11.95
2017-10-19T09:38:13.289Z,11.97
2017-10-19T09:40:05.994Z,12.00
2017-10-19T09:41:05.854Z,12.02
2017-10-19T09:42:58.652Z,12.04
2017-10-19T09:43:58.525Z,12.02
2017-10-19T09:45:51.283Z,12.09
2017-10-19T09:46:51.199Z,12.09
2017-10-19T09:48:44.057Z,12.15
2017-10-19T09:49:43.879Z,12.06
2017-10-19T09:51:36.593Z,12.10
2017-10-19T09:52:36.505Z,12.13
2017-10-19T09:54:29.293Z,12.18
2017-10-19T09:55:29.165Z,12.25
2017-10-19T09:57:22.284Z,12.25
2017-10-19T09:58:22.198Z,12.27
2017-10-19T10:00:15.346Z,12.35
2017-10-19T10:01:14.943Z,12.32
2017-10-19T10:03:07.770Z,12.29
2017-10-19T10:04:07.529Z,12.42
2017-10-19T10:06:00.281Z,12.45
2017-10-19T10:07:00.199Z,12.42
2017-10-19T10:08:53.008Z,12.53
2017-10-19T10:09:52.874Z,12.57
2017-10-19T10:11:45.815Z,12.55
2017-10-19T10:12:45.677Z,12.55
2017-10-19T10:14:38.344Z,12.46
2017-10-19T10:15:38.249Z,12.60
2017-10-19T10:17:30.946Z,12.50
2017-10-19T10:18:30.865Z,12.55
2017-10-19T10:20:23.786Z,12.62
2017-10-19T10:21:23.659Z,12.61
2017-10-19T10:23:16.446Z,12.70
2017-10-19T10:24:16.310Z,12.65
2017-10-19T10:26:09.071Z,12.67
2017-10-19T10:27:08.962Z,12.62
2017-10-19T10:29:01.816Z,12.64
2017-10-19T10:30:01.684Z,12.67
2017-10-19T10:31:54.452Z,12.72
2017-10-19T10:32:54.372Z,12.67
2017-10-19T10:34:47.281Z,12.68
2017-10-19T10:35:47.079Z,12.72
2017-10-19T10:37:39.881Z,12.70
2017-10-19T10:38:39.754Z,12.76
2017-10-19T10:40:32.518Z,12.70
2017-10-19T10:41:32.386Z,12.78
2017-10-19T10:43:25.278Z,12.68
2017-10-19T10:44:25.151Z,12.70
2017-10-19T10:46:17.922Z,12.72
2017-10-19T10:47:17.839Z,12.64
2017-10-19T10:49:10.943Z,12.76
2017-10-19T10:50:10.551Z,12.68
2017-10-19T10:52:03.229Z,12.78
2017-10-19T10:53:03.146Z,12.79
2017-10-19T10:54:55.970Z,12.75
2017-10-19T10:55:55.844Z,12.75
2017-10-19T10:57:48.631Z,12.82
2017-10-19T10:58:48.544Z,12.85
2017-10-19T11:00:41.435Z,12.83
2017-10-19T11:01:41.240Z,12.85
2017-10-19T11:03:33.962Z,12.93
2017-10-19T11:04:33.827Z,12.90
2017-10-19T11:06:26.598Z,12.95
2017-10-19T11:07:26.515Z,12.95
2017-10-19T11:09:19.379Z,12.95
2017-10-19T11:10:19.204Z,12.98
2017-10-19T11:12:11.985Z,12.98
2017-10-19T11:13:11.901Z,12.94
2017-10-19T11:15:04.686Z,13.08
2017-10-19T11:16:04.526Z,12.95
2017-10-19T11:17:57.342Z,12.97
2017-10-19T11:18:57.269Z,12.93
2017-10-19T11:20:50.139Z,12.94
2017-10-19T11:21:50.009Z,12.97
2017-10-19T11:23:43.337Z,12.94
2017-10-19T11:24:43.235Z,12.94
2017-10-19T11:26:36.391Z,13.01
2017-10-19T11:27:36.293Z,12.98
2017-10-19T11:29:29.074Z,13.09
2017-10-19T11:30:28.945Z,13.13
2017-10-19T11:32:22.216Z,13.08
2017-10-19T11:33:22.137Z,13.08
2017-10-19T11:35:14.973Z,13.11
2017-10-19T11:36:14.853Z,13.13
2017-10-19T11:38:07.572Z,13.08
2017-10-19T11:39:07.489Z,13.13
2017-10-19T11:41:00.287Z,13.13
2017-10-19T11:42:00.156Z,13.11
2017-10-19T11:43:52.996Z,13.28
2017-10-19T11:44:52.875Z,13.30
2017-10-19T11:46:45.717Z,13.27
2017-10-19T11:47:45.665Z,13.19
2017-10-19T11:49:38.308Z,13.23
2017-10-19T11:50:38.183Z,13.27
2017-10-19T11:52:30.938Z,13.30
2017-10-19T11:53:30.859Z,13.27
2017-10-19T11:55:23.662Z,13.33
2017-10-19T11:56:23.537Z,13.31
2017-10-19T11:58:16.350Z,13.38
2017-10-19T11:59:16.202Z,13.37
2017-10-19T12:01:09.745Z,13.35
2017-10-19T12:02:09.371Z,13.41
2017-10-19T12:04:02.656Z,13.31
2017-10-19T12:05:02.664Z,13.42
2017-10-19T12:06:55.371Z,13.39
2017-10-19T12:07:55.289Z,13.42
2017-10-19T12:09:48.232Z,13.39
2017-10-19T12:10:48.056Z,13.42
2017-10-19T12:12:41.009Z,13.38
2017-10-19T12:13:40.718Z,13.42
2017-10-19T12:15:33.493Z,13.49
2017-10-19T12:16:33.366Z,13.46
2017-10-19T12:18:26.289Z,13.50
2017-10-19T12:19:26.165Z,13.50
2017-10-19T12:21:18.943Z,13.57
2017-10-19T12:22:18.851Z,13.65
2017-10-19T12:24:12.007Z,13.78
2017-10-19T12:25:11.563Z,13.86
2017-10-19T12:27:04.246Z,14.20
2017-10-19T12:28:04.246Z,14.30
2017-10-19T12:29:57.159Z,14.45
2017-10-19T12:30:57.034Z,14.53
2017-10-19T12:32:49.776Z,14.48
2017-10-19T12:33:49.705Z,14.41
2017-10-19T12:35:42.491Z,14.26
2017-10-19T12:36:42.576Z,14.28
2017-10-19T12:38:35.165Z,14.32
2017-10-19T12:39:35.024Z,14.35
2017-10-19T12:41:27.827Z,14.26
2017-10-19T12:42:27.756Z,14.30
2017-10-19T12:44:20.580Z,14.30
2017-10-19T12:45:20.438Z,14.41
2017-10-19T12:47:13.287Z,14.51
2017-10-19T12:48:13.155Z,14.53
2017-10-19T12:50:06.157Z,14.79
2017-10-19T12:51:05.801Z,14.89
2017-10-19T12:52:58.558Z,14.99
2017-10-19T12:53:58.482Z,15.00
2017-10-19T12:55:58.987Z,14.82
2017-10-19T12:56:51.223Z,14.85
2017-10-19T12:58:44.057Z,14.79
2017-10-19T12:59:44.078Z,14.77
2017-10-19T13:01:36.700Z,14.65
2017-10-19T13:02:36.604Z,14.62
2017-10-19T13:04:29.371Z,14.65
2017-10-19T13:05:29.243Z,14.68
2017-10-19T13:07:22.088Z,14.72
2017-10-19T13:08:21.957Z,14.72
2017-10-19T13:10:15.118Z,14.60
2017-10-19T13:11:14.634Z,14.63
2017-10-19T13:13:07.529Z,14.68
2017-10-19T13:14:07.286Z,14.65
2017-10-19T13:16:00.249Z,14.66
2017-10-19T13:17:00.123Z,14.62
2017-10-19T13:18:53.107Z,14.70
2017-10-19T13:19:52.984Z,14.62
2017-10-19T13:21:46.355Z,14.62
2017-10-19T13:22:46.170Z,14.62
2017-10-19T13:24:39.002Z,14.63
2017-10-19T13:25:38.820Z,14.72
2017-10-19T13:27:31.587Z,14.69
2017-10-19T13:28:31.513Z,14.73
2017-10-19T13:30:24.348Z,14.85
2017-10-19T13:31:24.221Z,14.78
2017-10-19T13:33:17.252Z,14.94
2017-10-19T13:34:16.994Z,14.91
2017-10-19T13:36:10.871Z,14.86
2017-10-19T13:37:09.705Z,14.77
2017-10-19T13:39:02.494Z,14.79
2017-10-19T13:40:02.326Z,14.63
2017-10-19T13:41:55.639Z,14.59
2017-10-19T13:42:55.552Z,14.53
2017-10-19T13:44:48.415Z,14.59
2017-10-19T13:45:48.291Z,14.55
2017-10-19T13:47:41.134Z,14.51
2017-10-19T13:48:41.019Z,14.48
2017-10-19T13:50:33.756Z,14.58
2017-10-19T13:51:33.677Z,14.54
2017-10-19T13:53:26.674Z,14.43
2017-10-19T13:54:26.484Z,14.37
2017-10-19T13:56:19.852Z,14.45
2017-10-19T13:57:19.713Z,14.26
2017-10-19T13:59:13.755Z,14.44
2017-10-19T14:00:12.422Z,14.29
2017-10-19T14:02:05.094Z,14.26
2017-10-19T14:03:05.020Z,14.29
2017-10-19T14:04:57.869Z,14.28
2017-10-19T14:05:57.811Z,14.29
2017-10-19T14:07:51.017Z,14.37
2017-10-19T14:08:50.956Z,14.33
2017-10-19T14:10:43.785Z,14.50
2017-10-19T14:11:43.642Z,14.48
2017-10-19T14:13:36.330Z,14.50
2017-10-19T14:14:36.264Z,14.63
2017-10-19T14:16:29.547Z,14.66
2017-10-19T14:17:30.194Z,14.72
2017-10-19T14:19:22.475Z,14.78
2017-10-19T14:20:22.413Z,14.78
2017-10-19T14:22:15.542Z,14.66
2017-10-19T14:23:15.385Z,14.77
2017-10-19T14:25:08.217Z,14.63
2017-10-19T14:26:08.156Z,14.69
2017-10-19T14:28:01.113Z,14.54
2017-10-19T14:29:00.845Z,14.55
2017-10-19T14:30:54.207Z,14.55
2017-10-19T14:31:54.703Z,14.47
2017-10-19T14:33:46.666Z,14.47
2017-10-19T14:34:46.562Z,14.33
2017-10-19T14:36:40.254Z,14.36
2017-10-19T14:37:39.321Z,14.29
2017-10-19T14:39:32.039Z,14.35
2017-10-19T14:40:32.016Z,14.32
2017-10-19T14:42:24.808Z,14.26
2017-10-19T14:43:24.777Z,14.23
2017-10-19T14:45:17.523Z,14.32
2017-10-19T14:46:17.439Z,14.23
2017-10-19T14:48:11.373Z,14.20
2017-10-19T14:49:10.828Z,14.15
2017-10-19T14:51:03.426Z,14.12
2017-10-19T14:52:03.206Z,14.10
2017-10-19T14:53:56.142Z,14.14
2017-10-19T14:54:56.016Z,14.05
2017-10-19T14:56:48.844Z,14.05
2017-10-19T14:57:48.831Z,14.03
2017-10-19T14:59:41.622Z,14.05
2017-10-19T15:00:41.414Z,14.03
2017-10-19T15:02:34.181Z,13.99
2017-10-19T15:03:34.045Z,13.92
2017-10-19T15:05:26.945Z,13.90
2017-10-19T15:06:26.772Z,13.93
2017-10-19T15:08:19.585Z,13.95
2017-10-19T15:09:19.461Z,13.86
2017-10-19T15:11:15.697Z,13.86
2017-10-19T15:12:13.175Z,13.83
2017-10-19T15:14:05.229Z,13.85
2017-10-19T15:15:04.970Z,13.89
2017-10-19T15:16:58.253Z,13.81
2017-10-19T15:17:58.171Z,13.87
2017-10-19T15:19:52.967Z,13.89
2017-10-19T15:20:52.746Z,13.74
2017-10-19T15:22:46.594Z,13.78
2017-10-19T15:23:46.717Z,13.75
2017-10-19T15:25:38.244Z,13.74
2017-10-19T15:26:37.994Z,13.71
2017-10-19T15:28:33.273Z,13.70
2017-10-19T15:29:32.982Z,13.74
2017-10-19T15:31:27.380Z,13.68
2017-10-19T15:32:27.291Z,13.75
2017-10-19T15:34:21.115Z,13.72
2017-10-19T15:35:20.312Z,13.67
2017-10-19T15:37:16.631Z,13.63
2017-10-19T15:38:15.075Z,13.63
2017-10-19T15:40:05.666Z,13.50
2017-10-19T15:41:05.404Z,13.53
2017-10-19T15:42:59.824Z,13.50
2017-10-19T15:43:59.748Z,13.47
2017-10-19T15:45:54.795Z,13.49
2017-10-19T15:46:54.542Z,13.44
2017-10-19T15:48:47.301Z,13.50
2017-10-19T15:49:47.342Z,13.41
2017-10-19T15:51:41.298Z,13.41
2017-10-19T15:52:40.292Z,13.41
2017-10-19T15:54:35.289Z,13.33
2017-10-19T15:55:33.194Z,13.35
2017-10-19T15:57:27.302Z,13.19
2017-10-19T15:58:27.555Z,13.28
2017-10-19T16:00:21.574Z,13.28
2017-10-19T16:01:19.894Z,13.25
2017-10-19T16:03:14.839Z,13.19
2017-10-19T16:04:12.885Z,13.12
2017-10-19T16:06:05.884Z,13.09
2017-10-19T16:07:05.621Z,13.11
2017-10-19T16:08:59.104Z,13.08
2017-10-19T16:09:58.889Z,13.04
2017-10-19T16:11:52.164Z,13.09
2017-10-19T16:12:52.397Z,13.13
2017-10-19T16:14:44.948Z,13.13
2017-10-19T16:15:45.138Z,13.12
2017-10-19T16:17:37.461Z,13.11
2017-10-19T16:18:37.560Z,13.05
2017-10-19T16:20:30.632Z,13.08
2017-10-19T16:21:30.551Z,13.05
2017-10-19T16:23:23.739Z,12.98
2017-10-19T16:24:23.614Z,12.91
2017-10-19T16:26:16.881Z,12.87
2017-10-19T16:27:16.618Z,12.90
2017-10-19T16:29:09.182Z,12.85
2017-10-19T16:30:08.941Z,12.80
2017-10-19T16:32:01.717Z,12.83
2017-10-19T16:33:01.685Z,12.85
2017-10-19T16:34:55.115Z,12.95
2017-10-19T16:35:55.035Z,12.87
2017-10-19T16:37:47.718Z,12.90
2017-10-19T16:38:47.581Z,12.86
2017-10-19T16:40:40.487Z,12.87
2017-10-19T16:41:41.091Z,12.87
2017-10-19T16:43:33.104Z,12.91
2017-10-19T16:44:32.996Z,12.90
2017-10-19T16:46:25.892Z,12.91
2017-10-19T16:47:25.823Z,12.95
2017-10-19T16:49:18.651Z,12.93
2017-10-19T16:50:18.487Z,12.93
2017-10-19T16:52:14.397Z,13.01
2017-10-19T16:53:11.137Z,12.95
2017-10-19T16:55:03.906Z,12.87
2017-10-19T16:56:03.773Z,12.97
2017-10-19T16:57:56.591Z,12.94
2017-10-19T16:58:56.506Z,13.00
2017-10-19T17:00:49.298Z,13.00
2017-10-19T17:01:49.179Z,12.90
2017-10-19T17:03:42.053Z,12.87
2017-10-19T17:04:41.834Z,12.95
2017-10-19T17:06:35.107Z,12.91
2017-10-19T17:07:34.977Z,12.93
2017-10-19T17:09:27.942Z,12.91
2017-10-19T17:10:27.650Z,12.91
2017-10-19T17:12:20.450Z,12.86
2017-10-19T17:13:20.384Z,12.87
2017-10-19T17:15:13.289Z,12.80
2017-10-19T17:16:13.038Z,12.80
2017-10-19T17:18:06.130Z,12.93
2017-10-19T17:19:06.154Z,12.80
2017-10-19T17:20:58.810Z,12.86
2017-10-19T17:21:58.552Z,12.82
2017-10-19T17:23:52.024Z,12.80
2017-10-19T17:24:51.940Z,12.85
2017-10-19T17:26:46.824Z,12.75
2017-10-19T17:27:46.311Z,12.87
2017-10-19T17:29:38.050Z,12.83
2017-10-19T17:30:38.125Z,12.79
2017-10-19T17:32:32.095Z,12.76
2017-10-19T17:33:31.829Z,12.85
2017-10-19T17:35:27.068Z,12.79
2017-10-19T17:36:27.686Z,12.86
2017-10-19T17:38:20.567Z,12.80
2017-10-19T17:39:19.468Z,12.82
2017-10-19T17:41:13.932Z,12.73
2017-10-19T17:42:13.589Z,12.78
2017-10-19T17:44:05.038Z,12.83
2017-10-19T17:45:04.940Z,12.73
2017-10-19T17:46:58.681Z,12.72
2017-10-19T17:47:58.416Z,12.76
2017-10-19T17:49:52.633Z,12.72
2017-10-19T17:50:51.694Z,12.65
2017-10-19T17:52:45.870Z,12.64
2017-10-19T17:53:45.546Z,12.70
2017-10-19T17:55:37.991Z,12.67
2017-10-19T17:56:37.295Z,12.67
2017-10-19T17:58:30.766Z,12.58
2017-10-19T17:59:30.535Z,12.64
2017-10-19T18:01:24.371Z,12.60
2017-10-19T18:02:25.051Z,12.62
2017-10-19T18:04:19.319Z,12.68
2017-10-19T18:05:16.990Z,12.62
2017-10-19T18:07:09.796Z,12.60
2017-10-19T18:08:09.607Z,12.61
2017-10-19T18:10:02.892Z,12.70
2017-10-19T18:11:02.153Z,12.53
2017-10-19T18:12:55.238Z,12.64
2017-10-19T18:13:54.862Z,12.65
2017-10-19T18:15:47.612Z,12.60
2017-10-19T18:16:47.524Z,12.62
2017-10-19T18:18:40.512Z,12.61
2017-10-19T18:19:40.291Z,12.47
2017-10-19T18:21:32.931Z,12.54
2017-10-19T18:22:32.849Z,12.46
2017-10-19T18:24:25.832Z,12.53
2017-10-19T18:25:25.568Z,12.67
2017-10-19T18:27:18.943Z,12.62
2017-10-19T18:28:18.242Z,12.64
2017-10-19T18:30:11.197Z,12.67
2017-10-19T18:31:10.910Z,12.67
2017-10-19T18:33:04.317Z,12.70